Time;durP1;ratioP1;P1;durP2;ratioP2;P2;SDS_P1;SDS_P2;PMS_P1;PMS_P2;Temp;Humidity;BMP_temperature;BMP_pressure;BME280_temperature;BME280_humidity;BME280_pressure;Samples;Min_cycle;Max_cycle;Signal;HPM_P1;HPM_P2
2022/11/12 00:00:16;;;;;;;18.23;9.73;;;7.80;99.90;;;;;;5097820;27;20057;-73
2022/11/12 00:02:42;;;;;;;21.08;10.07;;;7.80;99.90;;;;;;5105598;27;20044;-73
2022/11/12 00:05:08;;;;;;;15.88;8.50;;;7.70;99.90;;;;;;5103959;27;20476;-72
2022/11/12 00:07:34;;;;;;;15.50;8.80;;;7.70;99.90;;;;;;5083128;27;20061;-72
2022/11/12 00:10:00;;;;;;;17.58;8.88;;;7.70;99.90;;;;;;5119536;27;20873;-73
2022/11/12 00:12:25;;;;;;;18.30;9.48;;;7.70;99.90;;;;;;5126260;27;20569;-73
2022/11/12 00:14:51;;;;;;;18.38;8.82;;;7.70;99.90;;;;;;5119424;27;20046;-73
2022/11/12 00:17:17;;;;;;;19.08;10.10;;;7.60;99.90;;;;;;5126690;27;20039;-73
2022/11/12 00:19:43;;;;;;;19.77;10.40;;;7.70;99.90;;;;;;5128172;27;20063;-73
2022/11/12 00:22:08;;;;;;;16.23;9.93;;;7.60;99.90;;;;;;5093420;27;20089;-73
2022/11/12 00:24:34;;;;;;;21.88;9.50;;;7.60;99.90;;;;;;5107115;27;20035;-73
2022/11/12 00:27:00;;;;;;;15.60;9.18;;;7.60;99.90;;;;;;5137792;27;20449;-73
2022/11/12 00:29:25;;;;;;;19.55;10.23;;;7.60;99.90;;;;;;5090195;28;20039;-73
2022/11/12 00:31:51;;;;;;;16.25;9.50;;;7.60;99.90;;;;;;5101067;27;20047;-73
2022/11/12 00:34:17;;;;;;;16.67;9.35;;;7.60;99.90;;;;;;5107980;28;20043;-72
2022/11/12 00:36:42;;;;;;;18.08;9.32;;;7.50;99.90;;;;;;5097086;27;20036;-73
2022/11/12 00:39:08;;;;;;;14.23;8.93;;;7.60;99.90;;;;;;5097803;27;20508;-72
2022/11/12 00:41:34;;;;;;;18.60;10.02;;;7.50;99.90;;;;;;5102689;27;20067;-73
2022/11/12 00:43:59;;;;;;;17.73;9.48;;;7.50;99.90;;;;;;5102699;27;20042;-73
2022/11/12 00:46:25;;;;;;;17.90;9.88;;;7.50;99.90;;;;;;5140099;27;20039;-73
2022/11/12 00:48:51;;;;;;;16.92;9.70;;;8.00;99.90;;;;;;5103923;28;20062;-73
2022/11/12 00:51:16;;;;;;;20.23;9.95;;;7.50;99.90;;;;;;5110938;27;20032;-73
2022/11/12 00:53:42;;;;;;;18.23;10.85;;;7.50;99.90;;;;;;5089333;27;20058;-72
2022/11/12 00:56:08;;;;;;;19.02;9.60;;;7.40;99.90;;;;;;5103412;27;20408;-73
2022/11/12 00:58:38;;;;;;;16.15;9.20;;;7.40;99.90;;;;;;5101880;28;20140;-73
2022/11/12 01:01:07;;;;;;;16.70;9.52;;;7.40;99.90;;;;;;5098931;27;20055;-73
2022/11/12 01:03:34;;;;;;;18.23;10.35;;;7.40;99.90;;;;;;5094053;27;20105;-73
2022/11/12 01:06:11;;;;;;;18.70;10.30;;;7.40;99.90;;;;;;5084322;28;20138;-73
2022/11/12 01:08:38;;;;;;;14.48;9.10;;;7.40;99.90;;;;;;5104800;27;20843;-73
2022/11/12 01:11:13;;;;;;;15.40;9.43;;;7.40;99.90;;;;;;5096333;27;20126;-72
2022/11/12 01:13:42;;;;;;;14.63;9.43;;;7.40;99.90;;;;;;5082945;28;20126;-73
2022/11/12 01:16:20;;;;;;;19.40;9.65;;;7.40;99.90;;;;;;5111092;27;20381;-73
2022/11/12 01:18:46;;;;;;;15.50;9.05;;;7.90;99.90;;;;;;5099338;28;20035;-74
2022/11/12 01:21:13;;;;;;;15.57;9.48;;;7.30;99.90;;;;;;5103058;27;20048;-73
2022/11/12 01:23:42;;;;;;;15.98;10.48;;;7.70;99.90;;;;;;5099496;27;20054;-73
2022/11/12 01:26:11;;;;;;;22.35;10.85;;;7.30;99.90;;;;;;5100850;28;20078;-73
2022/11/12 01:28:37;;;;;;;17.00;9.77;;;7.30;99.90;;;;;;5104270;27;20086;-73
2022/11/12 01:31:25;;;;;;;18.60;10.35;;;7.30;99.90;;;;;;5088964;28;20071;-72
2022/11/12 01:33:57;;;;;;;18.77;10.43;;;7.30;99.90;;;;;;5105348;28;20096;-73
2022/11/12 01:36:24;;;;;;;14.82;9.45;;;7.20;99.90;;;;;;5101541;27;20557;-73
2022/11/12 01:38:51;;;;;;;20.63;11.05;;;7.20;99.90;;;;;;5087420;27;20513;-73
2022/11/12 01:41:22;;;;;;;18.23;10.73;;;7.20;99.90;;;;;;5107562;27;20051;-73
2022/11/12 01:44:13;;;;;;;16.58;9.82;;;7.20;99.90;;;;;;5104900;28;20123;-72
2022/11/12 01:47:02;;;;;;;17.45;10.00;;;7.20;99.90;;;;;;5106409;28;20445;-72
2022/11/12 01:49:40;;;;;;;22.42;11.80;;;7.20;99.90;;;;;;5070089;28;20404;-73
2022/11/12 01:52:16;;;;;;;21.95;10.93;;;7.40;99.90;;;;;;5102799;27;20050;-72
2022/11/12 01:54:45;;;;;;;20.20;11.23;;;7.20;99.90;;;;;;5084891;28;20035;-73
2022/11/12 01:57:12;;;;;;;18.67;11.05;;;7.20;99.90;;;;;;5086119;28;20419;-72
2022/11/12 01:59:42;;;;;;;20.27;11.35;;;7.10;99.90;;;;;;5103226;28;20031;-72
2022/11/12 02:02:09;;;;;;;19.95;10.82;;;7.10;99.90;;;;;;5085981;28;20058;-72
2022/11/12 02:04:37;;;;;;;18.27;11.18;;;7.20;99.90;;;;;;5087549;28;20374;-72
2022/11/12 02:07:05;;;;;;;19.23;11.00;;;7.10;99.90;;;;;;5098787;28;20062;-72
2022/11/12 02:09:31;;;;;;;23.25;11.00;;;7.20;99.90;;;;;;5117902;27;20051;-73
2022/11/12 02:11:58;;;;;;;20.45;10.95;;;7.10;99.90;;;;;;5100646;27;20105;-73
2022/11/12 02:14:24;;;;;;;22.23;11.43;;;7.10;99.90;;;;;;5081196;28;20067;-72
2022/11/12 02:16:50;;;;;;;18.80;11.32;;;7.10;99.90;;;;;;5115723;27;20500;-72
2022/11/12 02:19:16;;;;;;;19.02;11.63;;;7.10;99.90;;;;;;5097059;27;20659;-73
2022/11/12 02:21:42;;;;;;;16.88;11.05;;;7.00;99.90;;;;;;5084496;28;20039;-73
2022/11/12 02:24:11;;;;;;;19.92;10.60;;;7.10;99.90;;;;;;5103701;28;20439;-73
2022/11/12 02:26:43;;;;;;;24.52;11.20;;;7.00;99.90;;;;;;5111770;27;20514;-72
2022/11/12 02:29:09;;;;;;;17.48;11.15;;;7.00;99.90;;;;;;5086121;28;20107;-72
2022/11/12 02:31:35;;;;;;;20.60;10.82;;;7.20;99.90;;;;;;5105386;28;20499;-72
2022/11/12 02:34:01;;;;;;;17.52;10.48;;;7.00;99.90;;;;;;5126311;27;20054;-73
2022/11/12 02:36:27;;;;;;;17.95;10.43;;;6.90;99.90;;;;;;5095398;28;20050;-72
2022/11/12 02:38:53;;;;;;;17.13;10.48;;;6.90;99.90;;;;;;5099747;28;20054;-73
2022/11/12 02:41:20;;;;;;;16.90;10.07;;;6.90;99.90;;;;;;5122718;27;20043;-73
2022/11/12 02:43:46;;;;;;;17.55;10.48;;;6.80;99.90;;;;;;5086978;28;20401;-72
2022/11/12 02:46:12;;;;;;;19.92;10.25;;;6.80;99.90;;;;;;5106755;28;20043;-72
2022/11/12 02:48:37;;;;;;;16.23;10.10;;;6.80;99.90;;;;;;5106961;28;20039;-72
2022/11/12 02:51:04;;;;;;;18.17;10.18;;;6.80;99.90;;;;;;5077476;28;20384;-72
2022/11/12 02:53:31;;;;;;;16.83;9.70;;;6.80;99.90;;;;;;5131026;27;20046;-73
2022/11/12 02:55:57;;;;;;;16.63;9.93;;;6.80;99.90;;;;;;5125831;27;20039;-73
2022/11/12 02:58:23;;;;;;;16.48;10.40;;;6.70;99.90;;;;;;5109827;27;20126;-73
2022/11/12 03:00:49;;;;;;;14.40;9.13;;;6.70;99.90;;;;;;5117241;27;20126;-73
2022/11/12 03:03:15;;;;;;;13.80;8.45;;;6.70;99.90;;;;;;5132091;27;20114;-73
2022/11/12 03:05:41;;;;;;;17.65;9.75;;;6.70;99.90;;;;;;5113509;27;20031;-73
2022/11/12 03:08:08;;;;;;;18.52;10.52;;;6.60;99.90;;;;;;5114219;27;20043;-73
2022/11/12 03:10:38;;;;;;;18.77;10.73;;;6.60;99.90;;;;;;5108140;27;20462;-73
2022/11/12 03:13:04;;;;;;;19.77;10.55;;;6.60;99.90;;;;;;5121824;27;20046;-73
2022/11/12 03:15:30;;;;;;;16.40;10.50;;;6.60;99.90;;;;;;5100024;27;20041;-73
2022/11/12 03:17:59;;;;;;;15.93;10.43;;;6.50;99.90;;;;;;5106643;27;20123;-73
2022/11/12 03:20:25;;;;;;;20.70;11.30;;;6.50;99.90;;;;;;5128331;27;20041;-73
2022/11/12 03:23:10;;;;;;;16.58;11.10;;;7.50;99.90;;;;;;5088220;27;20100;-73
2022/11/12 03:25:36;;;;;;;20.38;10.80;;;6.70;99.90;;;;;;5100838;27;20049;-73
2022/11/12 03:28:08;;;;;;;15.80;11.38;;;6.50;99.90;;;;;;5087684;27;20051;-73
2022/11/12 03:30:38;;;;;;;16.55;10.45;;;6.80;99.90;;;;;;5083472;27;20064;-73
2022/11/12 03:33:05;;;;;;;19.20;12.30;;;6.40;99.90;;;;;;5103805;27;20071;-73
2022/11/12 03:35:32;;;;;;;19.00;11.25;;;6.40;99.90;;;;;;5104330;27;20574;-73
2022/11/12 03:37:59;;;;;;;17.17;11.20;;;6.40;99.90;;;;;;5117163;27;20048;-73
2022/11/12 03:40:26;;;;;;;18.23;11.68;;;6.40;99.90;;;;;;5102763;27;20139;-73
2022/11/12 03:42:52;;;;;;;17.85;11.48;;;6.60;99.90;;;;;;5086175;27;20043;-73
2022/11/12 03:45:20;;;;;;;20.65;11.80;;;6.40;99.90;;;;;;5102988;27;20042;-73
2022/11/12 03:47:48;;;;;;;17.27;11.88;;;6.90;99.90;;;;;;5105697;27;20028;-73
2022/11/12 03:50:15;;;;;;;23.42;12.20;;;6.40;99.90;;;;;;5091210;27;20078;-73
2022/11/12 03:52:46;;;;;;;18.67;12.00;;;6.40;99.90;;;;;;5086439;27;20035;-73
2022/11/12 03:55:13;;;;;;;19.13;11.88;;;6.40;99.90;;;;;;5098945;27;20043;-73
2022/11/12 03:57:39;;;;;;;17.00;11.05;;;6.30;99.90;;;;;;5090682;27;20046;-73
2022/11/12 04:00:07;;;;;;;19.40;11.43;;;6.30;99.90;;;;;;5111417;27;20491;-73
2022/11/12 04:02:33;;;;;;;18.58;11.40;;;6.30;99.90;;;;;;5105232;27;20048;-73
2022/11/12 04:10:28;;;;;;;21.85;11.73;;;6.30;99.90;;;;;;5123701;27;20054;-73
2022/11/12 04:15:39;;;;;;;19.13;11.02;;;6.30;99.90;;;;;;5111854;27;20047;-73
2022/11/12 04:23:33;;;;;;;20.63;11.57;;;6.50;99.90;;;;;;5101184;27;20403;-73
2022/11/12 04:30:14;;;;;;;18.98;12.45;;;6.20;99.90;;;;;;5088228;27;20109;-73
2022/11/12 04:31:30;;;;;;;17.98;11.93;;;6.20;99.90;;;;;;5097734;27;20151;-73
2022/11/12 04:34:27;;;;;;;21.60;11.73;;;6.20;99.90;;;;;;5100362;27;20270;-73
2022/11/12 04:36:41;;;;;;;19.67;11.10;;;6.20;99.90;;;;;;5124983;27;20114;-73
2022/11/12 04:39:07;;;;;;;16.92;11.32;;;6.20;99.90;;;;;;5130003;27;20164;-73
2022/11/12 04:47:04;;;;;;;19.27;11.45;;;6.10;99.90;;;;;;5128366;27;20611;-73
2022/11/12 04:49:30;;;;;;;18.73;10.38;;;6.00;99.90;;;;;;5111308;27;20067;-73
2022/11/12 04:52:04;;;;;;;19.42;11.25;;;6.00;99.90;;;;;;5099312;27;20055;-73
2022/11/12 04:54:30;;;;;;;17.13;11.13;;;6.00;99.90;;;;;;5109015;27;20035;-73
2022/11/12 04:56:55;;;;;;;17.25;10.98;;;6.00;99.90;;;;;;5103352;27;20236;-73
2022/11/12 04:59:21;;;;;;;19.25;11.73;;;6.00;99.90;;;;;;5097359;27;20046;-73
2022/11/12 05:01:47;;;;;;;17.70;11.68;;;6.50;99.90;;;;;;5093015;27;20441;-73
2022/11/12 05:04:12;;;;;;;21.40;10.50;;;5.90;99.90;;;;;;5093176;27;20051;-73
2022/11/12 05:06:50;;;;;;;18.85;12.48;;;5.90;99.90;;;;;;5127189;27;20035;-73
2022/11/12 05:09:17;;;;;;;17.42;12.00;;;5.90;99.90;;;;;;5109399;27;20042;-73
2022/11/12 05:11:43;;;;;;;26.20;13.55;;;6.00;99.90;;;;;;5129360;27;20032;-73
2022/11/12 05:14:08;;;;;;;20.02;12.85;;;6.00;99.90;;;;;;5103273;27;20122;-73
2022/11/12 05:16:34;;;;;;;21.98;13.90;;;6.00;99.90;;;;;;5104235;27;20034;-73
2022/11/12 05:19:00;;;;;;;22.05;13.60;;;6.00;99.90;;;;;;5106621;27;20100;-73
2022/11/12 05:24:10;;;;;;;25.33;14.38;;;6.60;99.90;;;;;;5123308;27;20058;-73
2022/11/12 05:26:36;;;;;;;29.05;14.95;;;6.10;99.90;;;;;;5100512;27;20058;-73
2022/11/12 05:29:02;;;;;;;40.22;16.00;;;6.10;99.90;;;;;;5103742;27;20051;-73
2022/11/12 05:31:28;;;;;;;36.25;15.88;;;6.10;99.90;;;;;;5103171;27;20054;-73
2022/11/12 05:33:54;;;;;;;41.35;17.42;;;6.10;99.90;;;;;;5091541;27;20050;-73
2022/11/12 05:36:20;;;;;;;27.98;16.38;;;6.20;99.90;;;;;;5092831;27;20043;-73
2022/11/12 05:38:46;;;;;;;40.85;17.42;;;6.20;99.90;;;;;;5128944;27;20047;-73
2022/11/12 05:41:12;;;;;;;33.33;18.65;;;6.20;99.90;;;;;;5105673;27;20113;-73
2022/11/12 05:43:37;;;;;;;39.65;17.77;;;6.20;99.90;;;;;;5096146;27;20114;-73
2022/11/12 05:46:03;;;;;;;26.70;17.63;;;6.20;99.90;;;;;;5106302;27;20047;-73
2022/11/12 05:48:29;;;;;;;28.77;16.30;;;6.30;99.90;;;;;;5102887;27;20055;-73
2022/11/12 05:50:55;;;;;;;31.00;18.45;;;6.30;99.90;;;;;;5085826;27;20712;-74
2022/11/12 05:53:21;;;;;;;25.33;16.45;;;6.30;99.90;;;;;;5089832;27;20046;-73
2022/11/12 05:55:47;;;;;;;27.30;17.00;;;6.30;99.90;;;;;;5128052;27;20039;-73
2022/11/12 05:58:12;;;;;;;33.55;18.30;;;6.30;99.90;;;;;;5109922;27;20051;-73
2022/11/12 06:00:38;;;;;;;24.05;16.02;;;6.40;99.90;;;;;;5106557;27;20502;-73
2022/11/12 06:03:08;;;;;;;27.98;16.63;;;6.30;99.90;;;;;;5091946;27;20054;-73
2022/11/12 06:05:36;;;;;;;27.38;16.20;;;6.30;99.90;;;;;;5111682;27;20035;-73
2022/11/12 06:08:04;;;;;;;29.08;16.70;;;6.30;99.90;;;;;;5089112;27;20047;-72
2022/11/12 06:10:33;;;;;;;33.72;16.83;;;6.30;99.90;;;;;;5103857;27;20794;-73
2022/11/12 06:12:58;;;;;;;37.75;18.38;;;6.30;99.90;;;;;;5114584;27;20221;-74
2022/11/12 06:15:27;;;;;;;34.05;18.52;;;6.30;99.90;;;;;;5097928;27;20055;-73
2022/11/12 06:17:53;;;;;;;45.13;19.52;;;6.30;99.90;;;;;;5116219;27;20043;-73
2022/11/12 06:20:22;;;;;;;40.72;19.40;;;6.40;99.90;;;;;;5114566;27;20152;-73
2022/11/12 06:22:49;;;;;;;33.65;18.02;;;6.30;99.90;;;;;;5079538;27;20051;-73
2022/11/12 06:25:15;;;;;;;40.13;19.40;;;6.30;99.90;;;;;;5106873;27;20042;-72
2022/11/12 06:27:42;;;;;;;36.25;18.33;;;6.30;99.90;;;;;;5111800;27;20177;-73
2022/11/12 06:30:08;;;;;;;65.50;19.17;;;6.30;99.90;;;;;;5091416;27;20633;-73
2022/11/12 06:32:34;;;;;;;48.70;20.60;;;6.30;99.90;;;;;;5093771;27;20086;-72
2022/11/12 06:35:00;;;;;;;45.10;19.52;;;6.30;99.90;;;;;;5092168;27;20079;-72
2022/11/12 06:37:26;;;;;;;59.42;22.00;;;6.40;99.90;;;;;;5093143;27;20046;-73
2022/11/12 06:39:51;;;;;;;41.58;21.75;;;6.40;99.90;;;;;;5098446;27;20403;-74
2022/11/12 06:42:17;;;;;;;35.42;21.08;;;7.00;99.90;;;;;;5077848;27;20048;-72
2022/11/12 06:44:43;;;;;;;33.25;20.42;;;6.40;99.90;;;;;;5093259;27;20529;-73
2022/11/12 06:47:09;;;;;;;42.22;22.52;;;6.40;99.90;;;;;;5111496;27;20266;-73
2022/11/12 06:49:35;;;;;;;49.13;21.23;;;6.40;99.90;;;;;;5095834;27;20419;-74
2022/11/12 06:52:02;;;;;;;42.55;21.77;;;6.40;99.90;;;;;;5078889;27;20047;-73
2022/11/12 06:54:28;;;;;;;107.95;23.80;;;6.40;99.90;;;;;;5092643;27;20093;-73
2022/11/12 06:56:53;;;;;;;37.80;21.17;;;6.40;99.90;;;;;;5085918;27;20039;-74
2022/11/12 06:59:19;;;;;;;43.80;21.17;;;6.40;99.90;;;;;;5091699;27;20040;-74
2022/11/12 07:01:45;;;;;;;32.55;18.63;;;6.40;99.90;;;;;;5086917;27;20032;-73
2022/11/12 07:04:10;;;;;;;53.05;20.48;;;6.50;99.90;;;;;;5088788;27;20070;-73
2022/11/12 07:06:36;;;;;;;34.28;20.50;;;6.50;99.90;;;;;;5087407;27;20051;-73
2022/11/12 07:09:04;;;;;;;45.88;20.98;;;6.50;99.90;;;;;;5075224;27;20492;-73
2022/11/12 07:11:29;;;;;;;40.30;20.52;;;6.50;99.90;;;;;;5088359;27;20823;-74
2022/11/12 07:13:55;;;;;;;121.68;22.98;;;6.50;99.90;;;;;;5079990;27;20058;-73
2022/11/12 07:16:21;;;;;;;52.83;20.98;;;6.50;99.90;;;;;;5090410;27;20039;-73
2022/11/12 07:18:48;;;;;;;108.90;22.63;;;6.50;99.90;;;;;;5082624;27;20051;-74
2022/11/12 07:21:19;;;;;;;56.30;21.33;;;7.00;99.90;;;;;;5088001;27;20196;-73
2022/11/12 07:23:46;;;;;;;68.38;21.42;;;6.50;99.90;;;;;;5096763;27;20051;-73
2022/11/12 07:26:14;;;;;;;42.05;21.15;;;6.50;99.90;;;;;;5109132;27;20419;-73
2022/11/12 07:28:41;;;;;;;40.90;19.90;;;6.60;99.90;;;;;;5105585;27;20111;-74
2022/11/12 07:31:10;;;;;;;98.60;22.10;;;6.50;99.90;;;;;;5083962;27;20439;-73
2022/11/12 07:33:36;;;;;;;60.20;21.40;;;6.60;99.90;;;;;;5120845;27;20627;-74
2022/11/12 07:36:04;;;;;;;34.15;18.52;;;6.50;99.90;;;;;;5117810;27;20461;-73
2022/11/12 07:38:33;;;;;;;73.40;20.95;;;6.50;99.90;;;;;;5123125;27;20135;-73
2022/11/12 07:41:02;;;;;;;45.33;18.67;;;6.50;99.90;;;;;;5102620;27;20154;-73
2022/11/12 07:43:29;;;;;;;42.75;19.48;;;6.50;99.90;;;;;;5100108;27;20443;-73
2022/11/12 07:46:04;;;;;;;37.35;18.38;;;6.50;99.90;;;;;;5094861;27;20071;-74
2022/11/12 07:48:31;;;;;;;35.35;18.67;;;6.60;99.90;;;;;;5096022;27;20111;-74
2022/11/12 07:51:06;;;;;;;61.38;19.25;;;6.50;99.90;;;;;;5089613;27;20048;-74
2022/11/12 07:53:33;;;;;;;43.00;19.17;;;6.60;99.90;;;;;;5094996;27;20100;-73
2022/11/12 07:56:01;;;;;;;35.97;19.15;;;6.50;99.90;;;;;;5116293;27;20256;-73
2022/11/12 07:58:31;;;;;;;44.85;20.33;;;6.60;99.90;;;;;;5100776;27;20055;-73
2022/11/12 08:01:05;;;;;;;125.07;22.52;;;6.60;99.90;;;;;;5088144;27;20039;-74
2022/11/12 08:03:31;;;;;;;46.08;21.10;;;6.60;99.90;;;;;;5090140;27;20043;-74
2022/11/12 08:05:59;;;;;;;69.78;21.30;;;6.70;99.90;;;;;;5094282;27;20043;-73
2022/11/12 08:08:25;;;;;;;44.58;18.90;;;6.60;99.90;;;;;;5087739;27;20560;-74
2022/11/12 08:10:58;;;;;;;47.53;19.17;;;6.60;99.90;;;;;;5105853;27;20044;-74
2022/11/12 08:13:24;;;;;;;74.32;21.17;;;6.60;99.90;;;;;;5085800;27;20039;-74
2022/11/12 08:15:50;;;;;;;42.70;20.20;;;6.70;99.90;;;;;;5110640;27;20050;-73
2022/11/12 08:18:16;;;;;;;54.22;20.35;;;6.70;99.90;;;;;;5106281;27;20112;-74
2022/11/12 08:20:42;;;;;;;52.60;19.48;;;6.70;99.90;;;;;;5095060;27;20058;-74
2022/11/12 08:23:08;;;;;;;66.35;26.75;;;6.70;99.90;;;;;;5102423;27;20043;-72
2022/11/12 08:25:35;;;;;;;87.70;27.38;;;6.70;99.90;;;;;;5113799;27;20403;-73
2022/11/12 08:28:01;;;;;;;54.95;22.48;;;6.80;99.90;;;;;;5095289;27;20055;-73
2022/11/12 08:30:28;;;;;;;91.15;28.77;;;6.80;99.90;;;;;;5098265;27;20105;-72
2022/11/12 08:32:59;;;;;;;126.90;42.75;;;6.80;99.90;;;;;;5076431;27;20034;-73
2022/11/12 08:35:26;;;;;;;60.85;22.75;;;7.20;99.90;;;;;;5099958;27;20424;-73
2022/11/12 08:37:57;;;;;;;48.83;21.95;;;6.90;99.90;;;;;;5108053;27;20122;-72
2022/11/12 08:40:23;;;;;;;;;;;6.90;99.90;;;;;;5093715;27;20044;-72
2022/11/12 08:42:56;;;;;;;62.60;24.33;;;6.90;99.90;;;;;;5098569;27;19931;-72
2022/11/12 08:45:22;;;;;;;82.13;26.00;;;7.10;99.90;;;;;;5098996;27;20439;-72
2022/11/12 08:47:47;;;;;;;67.75;27.05;;;7.00;99.90;;;;;;5094934;27;20558;-72
2022/11/12 08:50:13;;;;;;;92.00;25.45;;;7.10;99.90;;;;;;5096172;27;20039;-71
2022/11/12 08:52:39;;;;;;;128.05;31.30;;;7.10;99.90;;;;;;5098452;27;20040;-73
2022/11/12 08:55:06;;;;;;;81.28;27.15;;;7.40;99.90;;;;;;5115026;27;20122;-73
2022/11/12 08:57:31;;;;;;;73.97;27.60;;;7.20;99.90;;;;;;5091393;27;20625;-73
2022/11/12 08:59:57;;;;;;;95.43;30.17;;;7.30;99.90;;;;;;5099058;27;20262;-73
2022/11/12 09:02:23;;;;;;;100.10;26.70;;;7.30;99.90;;;;;;5095302;27;20422;-73
2022/11/12 09:04:49;;;;;;;79.30;27.63;;;7.30;99.90;;;;;;5085848;27;20061;-73
2022/11/12 09:07:15;;;;;;;72.72;28.42;;;7.30;99.90;;;;;;5108739;27;20040;-72
2022/11/12 09:09:41;;;;;;;67.10;28.38;;;7.30;99.90;;;;;;5113895;27;20043;-72
2022/11/12 09:12:07;;;;;;;105.93;29.75;;;7.30;99.90;;;;;;5094468;27;20376;-73
2022/11/12 09:14:33;;;;;;;120.10;30.88;;;7.40;99.90;;;;;;5098416;27;20114;-73
2022/11/12 09:16:58;;;;;;;113.63;30.15;;;7.40;99.90;;;;;;5107205;27;20050;-73
2022/11/12 09:19:24;;;;;;;117.75;30.30;;;7.60;99.90;;;;;;5096039;27;20063;-72
2022/11/12 09:21:50;;;;;;;142.13;30.90;;;7.50;99.90;;;;;;5114371;27;20050;-73
2022/11/12 09:24:15;;;;;;;81.43;29.23;;;7.70;99.90;;;;;;5110157;27;20035;-73
2022/11/12 09:26:41;;;;;;;80.72;27.95;;;7.60;99.90;;;;;;5099379;27;20050;-72
2022/11/12 09:29:07;;;;;;;94.18;29.58;;;7.60;99.90;;;;;;5085109;27;20043;-72
2022/11/12 09:31:32;;;;;;;77.68;28.02;;;7.60;99.90;;;;;;5081078;27;20036;-72
2022/11/12 09:33:58;;;;;;;108.45;29.38;;;7.70;99.90;;;;;;5094043;27;20051;-72
2022/11/12 09:36:24;;;;;;;114.22;29.30;;;7.70;99.90;;;;;;5084880;27;20092;-72
2022/11/12 09:38:49;;;;;;;99.90;28.42;;;7.70;99.90;;;;;;5105792;27;20711;-73
2022/11/12 09:41:39;;;;;;;89.50;29.05;;;8.40;99.90;;;;;;5083894;27;20914;-72
2022/11/12 09:44:09;;;;;;;71.18;28.35;;;7.70;99.90;;;;;;5094409;27;20397;-72
2022/11/12 09:46:47;;;;;;;86.53;28.70;;;8.00;99.90;;;;;;5083399;27;20043;-72
2022/11/12 09:49:33;;;;;;;79.72;27.00;;;7.70;99.90;;;;;;5103998;27;20061;-72
2022/11/12 09:52:31;;;;;;;110.25;29.33;;;7.70;99.90;;;;;;5096603;27;20127;-72
2022/11/12 09:55:13;;;;;;;66.43;26.20;;;7.70;99.90;;;;;;5083466;27;20112;-72
2022/11/12 09:57:39;;;;;;;97.55;26.75;;;7.70;99.90;;;;;;5082453;27;20043;-73
2022/11/12 10:00:17;;;;;;;128.48;29.27;;;7.80;99.90;;;;;;5089944;27;20500;-72
2022/11/12 10:03:00;;;;;;;73.93;27.10;;;7.70;99.90;;;;;;5092102;27;20395;-72
2022/11/12 10:05:40;;;;;;;105.72;29.52;;;7.70;99.90;;;;;;5087145;27;20603;-72
2022/11/12 10:08:18;;;;;;;65.13;26.92;;;7.70;99.90;;;;;;5091041;27;20051;-73
2022/11/12 10:10:47;;;;;;;106.75;28.58;;;7.70;99.90;;;;;;5076277;27;20039;-73
2022/11/12 10:13:40;;;;;;;72.55;27.08;;;7.30;99.90;;;;;;5089916;27;20066;-72
2022/11/12 10:16:43;;;;;;;120.72;29.98;;;7.80;99.90;;;;;;5078843;27;20058;-72
2022/11/12 10:19:39;;;;;;;69.78;26.38;;;7.70;99.90;;;;;;5100976;27;20043;-73
2022/11/12 10:22:32;;;;;;;85.95;28.13;;;7.70;99.90;;;;;;5084958;27;20039;-73
2022/11/12 10:25:12;;;;;;;104.75;28.30;;;7.80;99.90;;;;;;5075907;27;20042;-73
2022/11/12 10:27:42;;;;;;;63.25;27.13;;;7.70;99.90;;;;;;5074369;27;20056;-72
2022/11/12 10:30:22;;;;;;;63.50;26.98;;;7.70;99.90;;;;;;5091634;27;20772;-72
2022/11/12 10:32:50;;;;;;;73.50;28.00;;;7.70;99.90;;;;;;5077539;27;20089;-70
2022/11/12 10:35:22;;;;;;;74.15;27.65;;;8.10;99.90;;;;;;5104678;27;20714;-70
2022/11/12 10:38:13;;;;;;;66.97;27.67;;;7.70;99.90;;;;;;5081910;27;20051;-71
2022/11/12 10:40:40;;;;;;;85.63;27.87;;;7.70;99.90;;;;;;5085957;27;20043;-70
2022/11/12 10:43:21;;;;;;;69.65;28.90;;;7.80;99.90;;;;;;5082222;27;20047;-70
2022/11/12 10:45:49;;;;;;;86.55;28.25;;;7.70;99.90;;;;;;5089497;27;20049;-70
2022/11/12 10:48:31;;;;;;;55.22;26.50;;;7.80;99.90;;;;;;5084645;27;20188;-70
2022/11/12 10:50:58;;;;;;;62.50;26.48;;;7.80;99.90;;;;;;5102732;27;20114;-70
2022/11/12 10:53:37;;;;;;;58.17;25.70;;;7.80;99.90;;;;;;5087625;27;20187;-70
2022/11/12 10:56:21;;;;;;;51.50;26.13;;;7.80;99.90;;;;;;5072387;27;20046;-71
2022/11/12 10:59:07;;;;;;;74.75;26.00;;;7.80;99.90;;;;;;5106207;27;20041;-70
2022/11/12 11:01:33;;;;;;;52.72;26.02;;;7.90;99.90;;;;;;5105345;27;20114;-70
2022/11/12 11:03:58;;;;;;;57.25;27.73;;;7.80;99.90;;;;;;5086495;27;20127;-71
2022/11/12 11:06:26;;;;;;;65.65;26.10;;;7.80;99.90;;;;;;5074473;27;20141;-70
2022/11/12 11:09:15;;;;;;;57.33;26.15;;;7.80;99.90;;;;;;5106387;27;20054;-70
2022/11/12 11:11:52;;;;;;;83.53;25.65;;;7.90;99.90;;;;;;5087295;27;20078;-70
2022/11/12 11:14:21;;;;;;;43.50;24.40;;;7.90;99.90;;;;;;5097418;27;20051;-70
2022/11/12 11:17:00;;;;;;;50.92;25.25;;;7.90;99.90;;;;;;5117667;27;20047;-70
2022/11/12 11:19:38;;;;;;;47.38;24.60;;;7.90;99.90;;;;;;5103634;27;20043;-71
2022/11/12 11:22:29;;;;;;;49.80;26.70;;;8.10;99.90;;;;;;5106395;27;20438;-70
2022/11/12 11:25:08;;;;;;;50.60;27.88;;;8.00;99.90;;;;;;5101111;27;20043;-70
2022/11/12 11:28:14;;;;;;;45.95;28.10;;;8.00;99.90;;;;;;5111579;27;20090;-70
2022/11/12 11:30:55;;;;;;;46.88;26.48;;;8.20;99.90;;;;;;5097119;27;20419;-70
2022/11/12 11:33:36;;;;;;;47.05;27.65;;;8.10;99.90;;;;;;5101925;27;20047;-70
2022/11/12 11:36:07;;;;;;;52.92;28.15;;;8.10;99.90;;;;;;5096079;27;20053;-70
2022/11/12 11:38:53;;;;;;;48.13;27.27;;;8.10;99.90;;;;;;5112500;27;20440;-70
2022/11/12 11:41:53;;;;;;;42.63;26.67;;;8.10;99.90;;;;;;5103451;27;20119;-70
2022/11/12 11:44:38;;;;;;;50.60;27.52;;;8.20;99.90;;;;;;5088609;27;20335;-70
2022/11/12 11:47:12;;;;;;;49.85;27.45;;;8.20;99.90;;;;;;5101999;27;20039;-70
2022/11/12 11:49:56;;;;;;;44.75;27.70;;;8.20;99.90;;;;;;5097721;27;20047;-71
2022/11/12 11:52:47;;;;;;;43.75;26.75;;;8.20;99.90;;;;;;5107363;27;20051;-70
2022/11/12 11:55:44;;;;;;;53.67;28.70;;;8.20;99.90;;;;;;5101872;27;20042;-70
2022/11/12 11:58:29;;;;;;;46.63;27.98;;;8.20;99.90;;;;;;5118171;27;20382;-70
2022/11/12 12:01:32;;;;;;;42.75;27.77;;;8.30;99.90;;;;;;5095584;27;20042;-70
2022/11/12 12:04:10;;;;;;;46.90;28.42;;;8.30;99.90;;;;;;5118138;27;20047;-70
2022/11/12 12:06:56;;;;;;;45.67;28.73;;;8.30;99.90;;;;;;5084207;27;20047;-70
2022/11/12 12:09:31;;;;;;;45.90;29.95;;;8.40;99.90;;;;;;5083004;27;20628;-70
2022/11/12 12:12:12;;;;;;;44.55;28.95;;;8.40;99.90;;;;;;5106014;27;20845;-70
2022/11/12 12:15:07;;;;;;;43.40;28.08;;;8.30;99.90;;;;;;5099401;27;20038;-70
2022/11/12 12:17:32;;;;;;;45.45;27.58;;;8.40;99.90;;;;;;5100725;27;20695;-70
2022/11/12 12:20:16;;;;;;;48.50;28.77;;;8.40;99.90;;;;;;5099551;27;20040;-71
2022/11/12 12:23:06;;;;;;;47.83;29.67;;;8.40;99.90;;;;;;5090734;27;20142;-70
2022/11/12 12:25:36;;;;;;;44.47;28.25;;;8.50;99.90;;;;;;5083396;27;20049;-70
2022/11/12 12:28:27;;;;;;;43.55;27.20;;;8.60;99.90;;;;;;5103072;27;20136;-70
2022/11/12 12:31:00;;;;;;;46.85;29.15;;;8.50;99.90;;;;;;5122860;27;20082;-70
2022/11/12 12:33:40;;;;;;;45.22;28.08;;;8.50;99.90;;;;;;5093981;27;20074;-70
2022/11/12 12:36:22;;;;;;;46.97;27.88;;;8.50;99.90;;;;;;5126501;27;20468;-70
2022/11/12 12:38:53;;;;;;;;;;;8.60;99.90;;;;;;5125336;27;20449;-70
2022/11/12 12:41:28;;;;;;;42.92;26.45;;;8.60;99.90;;;;;;5104471;27;19922;-70
2022/11/12 12:44:01;;;;;;;45.50;29.25;;;8.70;99.90;;;;;;5106419;27;20126;-70
2022/11/12 12:46:29;;;;;;;46.03;29.40;;;8.60;99.90;;;;;;5108759;27;20711;-70
2022/11/12 12:48:58;;;;;;;47.28;28.52;;;8.70;99.90;;;;;;5121222;27;20419;-70
2022/11/12 12:51:28;;;;;;;43.92;29.08;;;8.70;99.90;;;;;;5130490;27;20487;-70
2022/11/12 12:53:54;;;;;;;45.92;28.90;;;9.10;99.90;;;;;;5126058;27;20049;-70
2022/11/12 12:56:22;;;;;;;44.92;28.92;;;8.80;99.90;;;;;;5130582;27;20514;-69
2022/11/12 12:58:49;;;;;;;48.22;30.40;;;8.70;99.90;;;;;;5099061;27;20036;-70
2022/11/12 13:01:21;;;;;;;43.70;29.55;;;8.70;99.90;;;;;;5100901;27;20501;-70
2022/11/12 13:03:49;;;;;;;49.05;30.77;;;8.70;99.90;;;;;;5104443;27;20046;-70
2022/11/12 13:06:15;;;;;;;45.75;29.70;;;8.70;99.90;;;;;;5098320;27;20054;-70
2022/11/12 13:08:41;;;;;;;46.42;29.50;;;8.80;99.90;;;;;;5093241;27;20039;-70
2022/11/12 13:11:07;;;;;;;43.38;29.35;;;8.90;99.90;;;;;;5092352;27;20042;-71
2022/11/12 13:13:36;;;;;;;51.80;29.42;;;8.80;99.90;;;;;;5083292;27;20059;-70
2022/11/12 13:16:02;;;;;;;46.78;29.80;;;8.80;99.90;;;;;;5128367;27;20115;-70
2022/11/12 13:18:38;;;;;;;45.28;28.58;;;8.80;99.90;;;;;;5103251;27;20068;-70